Chignik Lagoon, AK

6:22 PM AKDT on June 02, 2015 (GMT -0800)
Egegik | | Change Station
CLOSE
Current Station
Airport
Location: Egegik,
Elevation: 92 ft
Nearby Weather Stations

Elev 92 ft 58.19 °N, 157.39 °W | Updated 6 minutes ago

Clear
Clear
52 °F
Feels Like 52 °F
N
9
Wind Variable Wind from WNW

Today
High -- | Low -- °F
--% Chance of Precip.
Yesterday
High -- | Low -- °F
Precip. -- in
5:53 AM 11:11 PM
Full, 100% visible
Pressure 29.68 in
Visibility 10.0 miles
Clouds Clear
Dew Point 41 °F
Humidity 67%
Rainfall 0.05 in
Snow Depth Not available.
UV 4 out of 12
Pollen Not available.
Air Quality Not available.
Flu Activity Sporadic
METAR PAII 030216Z AUTO 29008KT 10SM CLR 11/05 A2968 RMK AO1

More Conditions Fewer Conditions

Pressure 29.68 in
Visibility 10.0 miles
Clouds Clear
Dew Point 41 °F
Humidity 67%
Rainfall 0.05 in
Snow Depth Not available.
UV 4 out of 12
Pollen Not available.
Air Quality Not available.
Flu Activity Sporadic
METAR PAII 030216Z AUTO 29008KT 10SM CLR 11/05 A2968 RMK AO1

More Conditions Fewer Conditions

10-Day Weather Forecast

×

Almanac

Astronomy

Jun. 02, 2015 Rise Set
Actual Time
Civil Twilight
Nautical Twilight
Astronomical Twilight
Moon
Length of Visible Light
Length of Day
Tomorrow will be .
, % of the Moon is Illuminated

Today's Extremes

State Highs State Lows

Community

WunderPhotos

Upload Photos

1,826,121 photos uploaded!

WunderBlogs® & News

Nearby

Air Quality

  Air Quality AQ Index Pollutant
Not available.

Snow Depth

Station Depth Elevation

Earthquake Activity

City Distance Mag. Time & Date
Minimum magnitude displayed is 2.5.

Coastal Water Temperatures

Place Temperature

Stations

Nearby Weather Stations

Station Location Temp. Windchill Dew Point Humidity Wind Precip. Elev Updated Type